Time,TemperatureF,DewpointF,PressureIn,WindDirection,WindDirectionDegrees,WindSpeedMPH,WindSpeedGustMPH,Humidity,HourlyPrecipIn,Conditions,Clouds,dailyrainin,SoftwareType,DateUTC
2013-05-31 00:00:00,48.8,22.4,29.58,North,349,8.0,14.0,35,0.00,,---,0.00,VWS V14.01,2013-05-31 06:00:00,
2013-05-31 00:02:00,48.8,22.4,29.58,North,349,8.0,14.0,35,0.00,,---,0.00,VWS V14.01,2013-05-31 06:02:00,
2013-05-31 00:10:00,50.3,21.6,29.57,NNW,341,12.0,12.0,32,0.00,,---,0.00,VWS V14.01,2013-05-31 06:10:00,
2013-05-31 00:11:00,50.3,21.6,29.57,NNW,341,12.0,12.0,32,0.00,,---,0.00,VWS V14.01,2013-05-31 06:11:00,
2013-05-31 00:20:00,50.4,20.1,29.56,WSW,242,14.0,18.0,30,0.00,,---,0.00,VWS V14.01,2013-05-31 06:20:00,
2013-05-31 00:21:00,50.4,20.1,29.56,WSW,242,14.0,18.0,30,0.00,,---,0.00,VWS V14.01,2013-05-31 06:21:00,
2013-05-31 00:30:00,50.5,21.8,29.57,NW,317,0.0,13.0,32,0.00,,---,0.00,VWS V14.01,2013-05-31 06:30:00,
2013-05-31 00:31:00,50.5,21.8,29.57,NW,317,0.0,13.0,32,0.00,,---,0.00,VWS V14.01,2013-05-31 06:31:00,
2013-05-31 00:40:00,49.7,21.8,29.57,North,349,13.0,14.0,33,0.00,,---,0.00,VWS V14.01,2013-05-31 06:40:00,
2013-05-31 00:41:00,49.7,21.8,29.57,North,349,13.0,14.0,33,0.00,,---,0.00,VWS V14.01,2013-05-31 06:41:00,
2013-05-31 00:50:00,49.0,22.6,29.59,NW,323,12.0,21.0,35,0.00,,---,0.00,VWS V14.01,2013-05-31 06:50:00,
2013-05-31 00:51:00,49.0,22.6,29.59,NW,323,12.0,21.0,35,0.00,,---,0.00,VWS V14.01,2013-05-31 06:51:00,
2013-05-31 01:00:00,48.9,21.8,29.59,WNW,298,0.0,15.0,34,0.00,,---,0.00,VWS V14.01,2013-05-31 07:00:00,
2013-05-31 01:01:00,48.9,21.8,29.59,WNW,298,0.0,15.0,34,0.00,,---,0.00,VWS V14.01,2013-05-31 07:01:00,
2013-05-31 01:10:00,49.0,21.9,29.59,WSW,246,0.0,13.0,34,0.00,,---,0.00,VWS V14.01,2013-05-31 07:10:00,
2013-05-31 01:11:00,49.0,21.9,29.59,WSW,246,0.0,13.0,34,0.00,,---,0.00,VWS V14.01,2013-05-31 07:11:00,
2013-05-31 01:20:00,48.2,20.5,29.59,NNW,335,13.0,23.0,33,0.00,,---,0.00,VWS V14.01,2013-05-31 07:20:00,
2013-05-31 01:21:00,48.2,20.5,29.59,NNW,335,13.0,23.0,33,0.00,,---,0.00,VWS V14.01,2013-05-31 07:21:00,
2013-05-31 01:30:00,47.5,21.2,29.61,NW,322,10.0,24.0,35,0.00,,---,0.00,VWS V14.01,2013-05-31 07:30:00,
2013-05-31 01:31:00,47.5,21.2,29.61,NW,322,10.0,24.0,35,0.00,,---,0.00,VWS V14.01,2013-05-31 07:31:00,
2013-05-31 01:40:00,47.2,22.9,29.63,NW,314,14.0,17.0,38,0.00,,---,0.00,VWS V14.01,2013-05-31 07:40:00,
2013-05-31 01:41:00,47.2,22.9,29.63,NW,314,14.0,17.0,38,0.00,,---,0.00,VWS V14.01,2013-05-31 07:41:00,
2013-05-31 01:50:00,45.7,23.9,29.63,WNW,287,17.0,19.0,42,0.00,,---,0.00,VWS V14.01,2013-05-31 07:50:00,
2013-05-31 01:51:00,45.7,23.9,29.63,WNW,287,17.0,19.0,42,0.00,,---,0.00,VWS V14.01,2013-05-31 07:51:00,
2013-05-31 02:00:00,44.6,25.6,29.65,WNW,300,6.0,20.0,47,0.00,,---,0.00,VWS V14.01,2013-05-31 08:00:00,
2013-05-31 02:01:00,44.6,25.6,29.65,WNW,300,6.0,20.0,47,0.00,,---,0.00,VWS V14.01,2013-05-31 08:01:00,
2013-05-31 02:11:00,43.7,26.3,29.65,WNW,290,11.0,16.0,50,0.00,,---,0.00,VWS V14.01,2013-05-31 08:11:00,
2013-05-31 02:20:00,43.2,26.3,29.66,WNW,303,14.0,18.0,51,0.00,,---,0.00,VWS V14.01,2013-05-31 08:20:00,
2013-05-31 02:30:00,43.1,26.2,29.66,WNW,294,12.0,16.0,51,0.00,,---,0.00,VWS V14.01,2013-05-31 08:30:00,
2013-05-31 02:31:00,43.1,26.2,29.66,WNW,294,12.0,16.0,51,0.00,,---,0.00,VWS V14.01,2013-05-31 08:31:00,
2013-05-31 02:40:00,43.2,26.3,29.66,WNW,284,11.0,19.0,51,0.00,,---,0.00,VWS V14.01,2013-05-31 08:40:00,
2013-05-31 02:41:00,43.2,26.3,29.66,WNW,284,11.0,19.0,51,0.00,,---,0.00,VWS V14.01,2013-05-31 08:41:00,
2013-05-31 02:50:00,44.0,25.6,29.63,WNW,300,8.0,17.0,48,0.00,,---,0.00,VWS V14.01,2013-05-31 08:50:00,
2013-05-31 02:51:00,44.0,25.6,29.63,WNW,300,8.0,17.0,48,0.00,,---,0.00,VWS V14.01,2013-05-31 08:51:00,
2013-05-31 03:00:00,43.4,26.5,29.64,NW,305,7.0,14.0,51,0.00,,---,0.00,VWS V14.01,2013-05-31 09:00:00,
2013-05-31 03:01:00,43.4,26.5,29.64,NW,305,7.0,14.0,51,0.00,,---,0.00,VWS V14.01,2013-05-31 09:01:00,
2013-05-31 03:10:00,43.6,25.2,29.64,NW,309,9.0,15.0,48,0.00,,---,0.00,VWS V14.01,2013-05-31 09:10:00,
2013-05-31 03:11:00,43.6,25.2,29.64,NW,309,9.0,15.0,48,0.00,,---,0.00,VWS V14.01,2013-05-31 09:11:00,
2013-05-31 03:20:00,44.2,23.1,29.64,NW,310,6.0,13.0,43,0.00,,---,0.00,VWS V14.01,2013-05-31 09:20:00,
2013-05-31 03:21:00,44.2,23.1,29.64,NW,310,6.0,13.0,43,0.00,,---,0.00,VWS V14.01,2013-05-31 09:21:00,
2013-05-31 03:30:00,44.8,23.7,29.63,NW,310,9.0,11.0,43,0.00,,---,0.00,VWS V14.01,2013-05-31 09:30:00,
2013-05-31 03:31:00,44.8,23.7,29.63,NW,310,9.0,11.0,43,0.00,,---,0.00,VWS V14.01,2013-05-31 09:31:00,
2013-05-31 03:40:00,45.4,21.9,29.63,WNW,282,22.0,23.0,39,0.00,,---,0.00,VWS V14.01,2013-05-31 09:40:00,
2013-05-31 03:41:00,45.4,21.9,29.63,WNW,282,22.0,23.0,39,0.00,,---,0.00,VWS V14.01,2013-05-31 09:41:00,
2013-05-31 03:50:00,45.7,21.6,29.63,West,274,9.0,22.0,38,0.00,,---,0.00,VWS V14.01,2013-05-31 09:50:00,
2013-05-31 03:51:00,45.7,21.6,29.63,West,274,9.0,22.0,38,0.00,,---,0.00,VWS V14.01,2013-05-31 09:51:00,
2013-05-31 04:00:00,45.3,21.8,29.63,WNW,287,7.0,20.0,39,0.00,,---,0.00,VWS V14.01,2013-05-31 10:00:00,
2013-05-31 04:01:00,45.3,21.8,29.63,WNW,287,7.0,20.0,39,0.00,,---,0.00,VWS V14.01,2013-05-31 10:01:00,
2013-05-31 04:10:00,45.1,21.6,29.61,West,260,19.0,24.0,39,0.00,,---,0.00,VWS V14.01,2013-05-31 10:10:00,
2013-05-31 04:11:00,45.1,21.6,29.61,West,260,19.0,24.0,39,0.00,,---,0.00,VWS V14.01,2013-05-31 10:11:00,
2013-05-31 04:20:00,44.5,22.3,29.62,WNW,290,20.0,26.0,41,0.00,,---,0.00,VWS V14.01,2013-05-31 10:20:00,
2013-05-31 04:21:00,44.5,22.3,29.62,WNW,290,20.0,26.0,41,0.00,,---,0.00,VWS V14.01,2013-05-31 10:21:00,
2013-05-31 04:30:00,44.1,22.5,29.65,WSW,248,15.0,31.0,42,0.00,,---,0.00,VWS V14.01,2013-05-31 10:30:00,
2013-05-31 04:31:00,44.1,22.5,29.65,WSW,248,15.0,31.0,42,0.00,,---,0.00,VWS V14.01,2013-05-31 10:31:00,
2013-05-31 04:40:00,43.8,22.2,29.64,West,276,19.0,25.0,42,0.00,,---,0.00,VWS V14.01,2013-05-31 10:40:00,
2013-05-31 04:41:00,43.8,22.2,29.64,West,276,19.0,25.0,42,0.00,,---,0.00,VWS V14.01,2013-05-31 10:41:00,
2013-05-31 04:50:00,43.5,22.0,29.64,West,261,16.0,26.0,42,0.00,,---,0.00,VWS V14.01,2013-05-31 10:50:00,
2013-05-31 04:51:00,43.5,22.0,29.64,West,261,16.0,26.0,42,0.00,,---,0.00,VWS V14.01,2013-05-31 10:51:00,
2013-05-31 05:00:00,43.5,22.0,29.64,West,272,9.0,23.0,42,0.00,,---,0.00,VWS V14.01,2013-05-31 11:00:00,
2013-05-31 05:01:00,43.5,22.0,29.64,West,272,9.0,23.0,42,0.00,,---,0.00,VWS V14.01,2013-05-31 11:01:00,
2013-05-31 05:10:00,43.4,21.9,29.64,WNW,287,12.0,16.0,42,0.00,,---,0.00,VWS V14.01,2013-05-31 11:10:00,
2013-05-31 05:11:00,43.4,21.9,29.64,WNW,287,12.0,16.0,42,0.00,,---,0.00,VWS V14.01,2013-05-31 11:11:00,
2013-05-31 05:20:00,44.0,21.8,29.64,WNW,282,12.0,16.0,41,0.00,,---,0.00,VWS V14.01,2013-05-31 11:20:00,
2013-05-31 05:21:00,44.0,21.8,29.64,WNW,282,12.0,16.0,41,0.00,,---,0.00,VWS V14.01,2013-05-31 11:21:00,
2013-05-31 05:30:00,43.9,22.3,29.64,West,270,11.0,17.0,42,0.00,,---,0.00,VWS V14.01,2013-05-31 11:30:00,
2013-05-31 05:31:00,43.9,22.3,29.64,West,270,11.0,17.0,42,0.00,,---,0.00,VWS V14.01,2013-05-31 11:31:00,
2013-05-31 05:40:00,43.8,22.2,29.64,WNW,290,6.0,17.0,42,0.00,,---,0.00,VWS V14.01,2013-05-31 11:40:00,
2013-05-31 05:41:00,43.8,22.2,29.64,WNW,290,6.0,17.0,42,0.00,,---,0.00,VWS V14.01,2013-05-31 11:41:00,
2013-05-31 05:50:00,43.5,23.0,29.65,West,270,5.0,15.0,44,0.00,,---,0.00,VWS V14.01,2013-05-31 11:50:00,
2013-05-31 05:51:00,43.5,23.0,29.65,West,270,5.0,15.0,44,0.00,,---,0.00,VWS V14.01,2013-05-31 11:51:00,
2013-05-31 06:00:00,43.0,23.1,29.64,WNW,292,11.0,11.0,45,0.00,,---,0.00,VWS V14.01,2013-05-31 12:00:00,
2013-05-31 06:01:00,43.0,23.1,29.64,WNW,292,11.0,11.0,45,0.00,,---,0.00,VWS V14.01,2013-05-31 12:01:00,
2013-05-31 06:10:00,43.2,23.3,29.66,WNW,288,13.0,16.0,45,0.00,,---,0.00,VWS V14.01,2013-05-31 12:10:00,
2013-05-31 06:11:00,43.2,23.3,29.66,WNW,288,13.0,16.0,45,0.00,,---,0.00,VWS V14.01,2013-05-31 12:11:00,
2013-05-31 06:20:00,43.3,23.9,29.67,West,267,13.0,19.0,46,0.00,,---,0.00,VWS V14.01,2013-05-31 12:20:00,
2013-05-31 06:21:00,43.3,23.9,29.67,West,267,13.0,19.0,46,0.00,,---,0.00,VWS V14.01,2013-05-31 12:21:00,
2013-05-31 06:30:00,42.0,25.2,29.67,West,263,9.0,19.0,51,0.00,,---,0.00,VWS V14.01,2013-05-31 12:30:00,
2013-05-31 06:31:00,42.0,25.2,29.67,West,263,9.0,19.0,51,0.00,,---,0.00,VWS V14.01,2013-05-31 12:31:00,
2013-05-31 06:40:00,40.6,27.8,29.69,West,273,7.0,12.0,60,0.00,,---,0.00,VWS V14.01,2013-05-31 12:40:00,
2013-05-31 06:41:00,40.6,27.8,29.69,West,273,7.0,12.0,60,0.00,,---,0.00,VWS V14.01,2013-05-31 12:41:00,
2013-05-31 06:50:00,40.8,27.2,29.69,WSW,253,9.0,13.0,58,0.00,,---,0.00,VWS V14.01,2013-05-31 12:50:00,
2013-05-31 06:51:00,40.8,27.2,29.69,WSW,253,9.0,13.0,58,0.00,,---,0.00,VWS V14.01,2013-05-31 12:51:00,
2013-05-31 07:00:00,41.1,27.5,29.69,WSW,254,1.0,9.0,58,0.00,,---,0.00,VWS V14.01,2013-05-31 13:00:00,
2013-05-31 07:01:00,41.1,27.5,29.69,WSW,254,1.0,9.0,58,0.00,,---,0.00,VWS V14.01,2013-05-31 13:01:00,
2013-05-31 07:10:00,42.6,27.1,29.69,WNW,294,15.0,20.0,54,0.00,,---,0.00,VWS V14.01,2013-05-31 13:10:00,
2013-05-31 07:11:00,42.6,27.1,29.69,WNW,294,15.0,20.0,54,0.00,,---,0.00,VWS V14.01,2013-05-31 13:11:00,
2013-05-31 07:20:00,43.4,26.0,29.69,WNW,292,11.0,21.0,50,0.00,,---,0.00,VWS V14.01,2013-05-31 13:20:00,
2013-05-31 07:21:00,43.4,26.0,29.69,WNW,292,11.0,21.0,50,0.00,,---,0.00,VWS V14.01,2013-05-31 13:21:00,
2013-05-31 07:30:00,44.3,25.4,29.70,WSW,256,13.0,23.0,47,0.00,,---,0.00,VWS V14.01,2013-05-31 13:30:00,
2013-05-31 07:31:00,44.3,25.4,29.70,WSW,256,13.0,23.0,47,0.00,,---,0.00,VWS V14.01,2013-05-31 13:31:00,
2013-05-31 07:40:00,44.6,24.6,29.68,WNW,285,12.0,27.0,45,0.00,,---,0.00,VWS V14.01,2013-05-31 13:40:00,
2013-05-31 07:41:00,44.6,24.6,29.68,WNW,285,12.0,27.0,45,0.00,,---,0.00,VWS V14.01,2013-05-31 13:41:00,
2013-05-31 07:50:00,45.0,24.4,29.68,WNW,290,25.0,30.0,44,0.00,,---,0.00,VWS V14.01,2013-05-31 13:50:00,
2013-05-31 07:51:00,45.0,24.4,29.68,WNW,290,25.0,30.0,44,0.00,,---,0.00,VWS V14.01,2013-05-31 13:51:00,
2013-05-31 08:00:00,45.3,25.2,29.68,WNW,297,16.0,25.0,45,0.00,,---,0.00,VWS V14.01,2013-05-31 14:00:00,
2013-05-31 08:01:00,45.3,25.2,29.68,WNW,297,16.0,25.0,45,0.00,,---,0.00,VWS V14.01,2013-05-31 14:01:00,
2013-05-31 08:10:00,45.0,25.0,29.70,WNW,300,17.0,25.0,45,0.00,,---,0.00,VWS V14.01,2013-05-31 14:10:00,
2013-05-31 08:11:00,45.0,25.0,29.70,WNW,300,17.0,25.0,45,0.00,,---,0.00,VWS V14.01,2013-05-31 14:11:00,
2013-05-31 08:20:00,45.2,25.1,29.70,WNW,284,16.0,23.0,45,0.00,,---,0.00,VWS V14.01,2013-05-31 14:20:00,
2013-05-31 08:21:00,45.2,25.1,29.70,WNW,284,16.0,23.0,45,0.00,,---,0.00,VWS V14.01,2013-05-31 14:21:00,
2013-05-31 08:30:00,46.1,25.4,29.68,WNW,302,14.0,21.0,44,0.00,,---,0.00,VWS V14.01,2013-05-31 14:30:00,
2013-05-31 08:31:00,46.1,25.4,29.68,WNW,302,14.0,21.0,44,0.00,,---,0.00,VWS V14.01,2013-05-31 14:31:00,
2013-05-31 08:40:00,46.7,24.8,29.68,NW,308,10.0,23.0,42,0.00,,---,0.00,VWS V14.01,2013-05-31 14:40:00,
2013-05-31 08:41:00,46.7,24.8,29.68,NW,308,10.0,23.0,42,0.00,,---,0.00,VWS V14.01,2013-05-31 14:41:00,
2013-05-31 08:50:00,47.3,23.0,29.68,WNW,303,13.0,26.0,38,0.00,,---,0.00,VWS V14.01,2013-05-31 14:50:00,
2013-05-31 08:51:00,47.3,23.0,29.68,WNW,303,13.0,26.0,38,0.00,,---,0.00,VWS V14.01,2013-05-31 14:51:00,
2013-05-31 09:00:00,48.4,23.3,29.66,NW,309,14.0,21.0,37,0.00,,---,0.00,VWS V14.01,2013-05-31 15:00:00,
2013-05-31 09:01:00,48.4,23.3,29.66,NW,309,14.0,21.0,37,0.00,,---,0.00,VWS V14.01,2013-05-31 15:01:00,
2013-05-31 09:10:00,48.7,23.0,29.66,WNW,300,9.0,22.0,36,0.00,,---,0.00,VWS V14.01,2013-05-31 15:10:00,
2013-05-31 09:11:00,48.7,23.0,29.66,WNW,300,9.0,22.0,36,0.00,,---,0.00,VWS V14.01,2013-05-31 15:11:00,
2013-05-31 09:20:00,49.6,23.1,29.63,WNW,300,13.0,18.0,35,0.00,,---,0.00,VWS V14.01,2013-05-31 15:20:00,
2013-05-31 09:21:00,49.6,23.1,29.63,WNW,300,13.0,18.0,35,0.00,,---,0.00,VWS V14.01,2013-05-31 15:21:00,
2013-05-31 09:30:00,49.6,23.1,29.63,WNW,298,13.0,16.0,35,0.00,,---,0.00,VWS V14.01,2013-05-31 15:30:00,
2013-05-31 09:31:00,49.6,23.1,29.63,WNW,298,13.0,16.0,35,0.00,,---,0.00,VWS V14.01,2013-05-31 15:31:00,
2013-05-31 09:40:00,50.6,23.3,29.63,WNW,290,4.0,23.0,34,0.00,,---,0.00,VWS V14.01,2013-05-31 15:40:00,
2013-05-31 09:41:00,50.6,23.3,29.63,WNW,290,4.0,23.0,34,0.00,,---,0.00,VWS V14.01,2013-05-31 15:41:00,
2013-05-31 09:50:00,51.0,21.5,29.62,WNW,284,16.0,24.0,31,0.00,,---,0.00,VWS V14.01,2013-05-31 15:50:00,
2013-05-31 09:51:00,51.0,21.5,29.62,WNW,284,16.0,24.0,31,0.00,,---,0.00,VWS V14.01,2013-05-31 15:51:00,
2013-05-31 10:00:00,51.4,19.4,29.61,West,273,14.0,21.0,28,0.00,,---,0.00,VWS V14.01,2013-05-31 16:00:00,
2013-05-31 10:01:00,51.4,19.4,29.61,West,273,14.0,21.0,28,0.00,,---,0.00,VWS V14.01,2013-05-31 16:01:00,
2013-05-31 10:10:00,52.9,19.0,29.59,West,273,24.0,27.0,26,0.00,,---,0.00,VWS V14.01,2013-05-31 16:10:00,
2013-05-31 10:11:00,52.9,19.0,29.59,West,273,24.0,27.0,26,0.00,,---,0.00,VWS V14.01,2013-05-31 16:11:00,
2013-05-31 10:20:00,52.4,17.6,29.59,WSW,249,13.0,27.0,25,0.00,,---,0.00,VWS V14.01,2013-05-31 16:20:00,
2013-05-31 10:21:00,52.4,17.6,29.59,WSW,249,13.0,27.0,25,0.00,,---,0.00,VWS V14.01,2013-05-31 16:21:00,
2013-05-31 10:30:00,53.9,17.0,29.59,SW,225,23.0,30.0,23,0.00,,---,0.00,VWS V14.01,2013-05-31 16:30:00,
2013-05-31 10:31:00,53.9,17.0,29.59,SW,225,23.0,30.0,23,0.00,,---,0.00,VWS V14.01,2013-05-31 16:31:00,
2013-05-31 10:40:00,53.6,17.7,29.59,WSW,249,13.0,33.0,24,0.00,,---,0.00,VWS V14.01,2013-05-31 16:40:00,
2013-05-31 10:41:00,53.6,17.7,29.59,WSW,249,13.0,33.0,24,0.00,,---,0.00,VWS V14.01,2013-05-31 16:41:00,
2013-05-31 10:50:00,54.2,16.2,29.59,SW,232,18.0,33.0,22,0.00,,---,0.00,VWS V14.01,2013-05-31 16:50:00,
2013-05-31 10:51:00,54.2,16.2,29.59,SW,232,18.0,33.0,22,0.00,,---,0.00,VWS V14.01,2013-05-31 16:51:00,
2013-05-31 11:00:00,54.4,16.4,29.59,WSW,257,13.0,33.0,22,0.00,,---,0.00,VWS V14.01,2013-05-31 17:00:00,
2013-05-31 11:01:00,54.4,16.4,29.59,WSW,257,13.0,33.0,22,0.00,,---,0.00,VWS V14.01,2013-05-31 17:01:00,
2013-05-31 11:10:00,55.4,15.0,29.62,West,268,2.0,25.0,20,0.00,,---,0.00,VWS V14.01,2013-05-31 17:10:00,
2013-05-31 11:11:00,55.4,15.0,29.62,West,268,2.0,25.0,20,0.00,,---,0.00,VWS V14.01,2013-05-31 17:11:00,
2013-05-31 11:20:00,54.9,14.6,29.61,WSW,254,17.0,27.0,20,0.00,,---,0.00,VWS V14.01,2013-05-31 17:20:00,
2013-05-31 11:21:00,54.9,14.6,29.61,WSW,254,17.0,27.0,20,0.00,,---,0.00,VWS V14.01,2013-05-31 17:21:00,
2013-05-31 11:30:00,55.5,17.3,29.61,SW,233,17.0,31.0,22,0.00,,---,0.00,VWS V14.01,2013-05-31 17:30:00,
2013-05-31 11:31:00,55.5,17.3,29.61,SW,233,17.0,31.0,22,0.00,,---,0.00,VWS V14.01,2013-05-31 17:31:00,
2013-05-31 11:40:00,56.3,16.9,29.59,WNW,302,19.0,30.0,21,0.00,,---,0.00,VWS V14.01,2013-05-31 17:40:00,
2013-05-31 11:41:00,56.3,16.9,29.59,WNW,302,19.0,30.0,21,0.00,,---,0.00,VWS V14.01,2013-05-31 17:41:00,
2013-05-31 11:50:00,56.4,14.7,29.61,SW,236,10.0,26.0,19,0.00,,---,0.00,VWS V14.01,2013-05-31 17:50:00,
2013-05-31 11:51:00,56.4,14.7,29.61,SW,236,10.0,26.0,19,0.00,,---,0.00,VWS V14.01,2013-05-31 17:51:00,
2013-05-31 12:00:00,56.3,16.9,29.60,WSW,238,20.0,30.0,21,0.00,,---,0.00,VWS V14.01,2013-05-31 18:00:00,
2013-05-31 12:01:00,56.3,16.9,29.60,WSW,238,20.0,30.0,21,0.00,,---,0.00,VWS V14.01,2013-05-31 18:01:00,
2013-05-31 12:10:00,55.9,15.4,29.61,West,260,11.0,31.0,20,0.00,,---,0.00,VWS V14.01,2013-05-31 18:10:00,
2013-05-31 12:11:00,55.9,15.4,29.61,West,260,11.0,31.0,20,0.00,,---,0.00,VWS V14.01,2013-05-31 18:11:00,
2013-05-31 12:20:00,56.6,18.2,29.61,WSW,240,29.0,29.0,22,0.00,,---,0.00,VWS V14.01,2013-05-31 18:20:00,
2013-05-31 12:21:00,56.6,18.2,29.61,WSW,240,29.0,29.0,22,0.00,,---,0.00,VWS V14.01,2013-05-31 18:21:00,
2013-05-31 12:30:00,56.5,19.2,29.61,West,267,16.0,33.0,23,0.00,,---,0.00,VWS V14.01,2013-05-31 18:30:00,
2013-05-31 12:31:00,56.5,19.2,29.61,West,267,16.0,33.0,23,0.00,,---,0.00,VWS V14.01,2013-05-31 18:31:00,
2013-05-31 12:40:00,55.5,18.3,29.62,WNW,286,22.0,33.0,23,0.00,,---,0.00,VWS V14.01,2013-05-31 18:40:00,
2013-05-31 12:41:00,55.5,18.3,29.62,WNW,286,22.0,33.0,23,0.00,,---,0.00,VWS V14.01,2013-05-31 18:41:00,
2013-05-31 12:50:00,55.9,16.5,29.62,West,279,16.0,32.0,21,0.00,,---,0.00,VWS V14.01,2013-05-31 18:50:00,
2013-05-31 12:51:00,55.9,16.5,29.62,West,279,16.0,32.0,21,0.00,,---,0.00,VWS V14.01,2013-05-31 18:51:00,
2013-05-31 13:00:00,56.6,18.2,29.61,West,271,13.0,31.0,22,0.00,,---,0.00,VWS V14.01,2013-05-31 19:00:00,
2013-05-31 13:01:00,56.6,18.2,29.61,West,271,13.0,31.0,22,0.00,,---,0.00,VWS V14.01,2013-05-31 19:01:00,
2013-05-31 13:10:00,56.8,17.3,29.64,WNW,283,29.0,31.0,21,0.00,,---,0.00,VWS V14.01,2013-05-31 19:10:00,
2013-05-31 13:11:00,56.8,17.3,29.64,WNW,283,29.0,31.0,21,0.00,,---,0.00,VWS V14.01,2013-05-31 19:11:00,
2013-05-31 13:20:00,56.8,17.3,29.63,WSW,237,17.0,31.0,21,0.00,,---,0.00,VWS V14.01,2013-05-31 19:20:00,
2013-05-31 13:21:00,56.8,17.3,29.63,WSW,237,17.0,31.0,21,0.00,,---,0.00,VWS V14.01,2013-05-31 19:21:00,
2013-05-31 13:30:00,57.3,16.6,29.62,West,269,27.0,30.0,20,0.00,,---,0.00,VWS V14.01,2013-05-31 19:30:00,
2013-05-31 13:31:00,57.3,16.6,29.62,West,269,27.0,30.0,20,0.00,,---,0.00,VWS V14.01,2013-05-31 19:31:00,
2013-05-31 13:40:00,57.4,16.7,29.62,WNW,303,19.0,28.0,20,0.00,,---,0.00,VWS V14.01,2013-05-31 19:40:00,
2013-05-31 13:41:00,57.4,16.7,29.62,WNW,303,19.0,28.0,20,0.00,,---,0.00,VWS V14.01,2013-05-31 19:41:00,
2013-05-31 13:50:00,57.1,16.4,29.63,WSW,252,13.0,30.0,20,0.00,,---,0.00,VWS V14.01,2013-05-31 19:50:00,
2013-05-31 13:51:00,57.1,16.4,29.63,WSW,252,13.0,30.0,20,0.00,,---,0.00,VWS V14.01,2013-05-31 19:51:00,
2013-05-31 14:00:00,56.9,16.3,29.63,West,276,6.0,27.0,20,0.00,,---,0.00,VWS V14.01,2013-05-31 20:00:00,
2013-05-31 14:01:00,56.9,16.3,29.63,West,276,6.0,27.0,20,0.00,,---,0.00,VWS V14.01,2013-05-31 20:01:00,
2013-05-31 14:10:00,57.3,15.4,29.65,WNW,283,13.0,27.0,19,0.00,,---,0.00,VWS V14.01,2013-05-31 20:10:00,
2013-05-31 14:11:00,57.3,15.4,29.65,WNW,283,13.0,27.0,19,0.00,,---,0.00,VWS V14.01,2013-05-31 20:11:00,
2013-05-31 14:20:00,57.1,16.4,29.64,WSW,257,2.0,20.0,20,0.00,,---,0.00,VWS V14.01,2013-05-31 20:20:00,
2013-05-31 14:21:00,57.1,16.4,29.64,WSW,257,2.0,20.0,20,0.00,,---,0.00,VWS V14.01,2013-05-31 20:21:00,
2013-05-31 14:30:00,57.0,16.4,29.64,WNW,292,17.0,24.0,20,0.00,,---,0.00,VWS V14.01,2013-05-31 20:30:00,
2013-05-31 14:31:00,57.0,16.4,29.64,WNW,292,17.0,24.0,20,0.00,,---,0.00,VWS V14.01,2013-05-31 20:31:00,
2013-05-31 14:40:00,56.5,15.9,29.64,West,279,12.0,22.0,20,0.00,,---,0.00,VWS V14.01,2013-05-31 20:40:00,
2013-05-31 14:41:00,56.5,15.9,29.64,West,279,12.0,22.0,20,0.00,,---,0.00,VWS V14.01,2013-05-31 20:41:00,
2013-05-31 14:50:00,57.6,15.7,29.65,West,280,17.0,29.0,19,0.00,,---,0.00,VWS V14.01,2013-05-31 20:50:00,
2013-05-31 14:51:00,57.6,15.7,29.65,West,280,17.0,29.0,19,0.00,,---,0.00,VWS V14.01,2013-05-31 20:51:00,
2013-05-31 15:00:00,58.0,14.8,29.65,WNW,299,10.0,31.0,18,0.00,,---,0.00,VWS V14.01,2013-05-31 21:00:00,
2013-05-31 15:01:00,58.0,14.8,29.65,WNW,299,10.0,31.0,18,0.00,,---,0.00,VWS V14.01,2013-05-31 21:01:00,
2013-05-31 15:10:00,57.9,15.9,29.64,WNW,288,17.0,26.0,19,0.00,,---,0.00,VWS V14.01,2013-05-31 21:10:00,
2013-05-31 15:11:00,57.9,15.9,29.64,WNW,288,17.0,26.0,19,0.00,,---,0.00,VWS V14.01,2013-05-31 21:11:00,
2013-05-31 15:20:00,57.8,15.8,29.64,WNW,284,9.0,22.0,19,0.00,,---,0.00,VWS V14.01,2013-05-31 21:20:00,
2013-05-31 15:21:00,57.8,15.8,29.64,WNW,284,9.0,22.0,19,0.00,,---,0.00,VWS V14.01,2013-05-31 21:21:00,
2013-05-31 15:30:00,57.5,14.4,29.64,NNW,330,20.0,25.0,18,0.00,,---,0.00,VWS V14.01,2013-05-31 21:30:00,
2013-05-31 15:31:00,57.5,14.4,29.64,NNW,330,20.0,25.0,18,0.00,,---,0.00,VWS V14.01,2013-05-31 21:31:00,
2013-05-31 15:40:00,56.8,13.8,29.64,NW,315,15.0,31.0,18,0.00,,---,0.00,VWS V14.01,2013-05-31 21:40:00,
2013-05-31 15:41:00,56.8,13.8,29.64,NW,315,15.0,31.0,18,0.00,,---,0.00,VWS V14.01,2013-05-31 21:41:00,
2013-05-31 15:50:00,56.3,13.4,29.66,NW,314,12.0,28.0,18,0.00,,---,0.00,VWS V14.01,2013-05-31 21:50:00,
2013-05-31 15:51:00,56.3,13.4,29.66,NW,314,12.0,28.0,18,0.00,,---,0.00,VWS V14.01,2013-05-31 21:51:00,
2013-05-31 16:00:00,57.2,16.5,29.65,West,272,12.0,27.0,20,0.00,,---,0.00,VWS V14.01,2013-05-31 22:00:00,
2013-05-31 16:01:00,57.2,16.5,29.65,West,272,12.0,27.0,20,0.00,,---,0.00,VWS V14.01,2013-05-31 22:01:00,
2013-05-31 16:10:00,58.3,15.0,29.65,West,279,25.0,25.0,18,0.00,,---,0.00,VWS V14.01,2013-05-31 22:10:00,
2013-05-31 16:11:00,58.3,15.0,29.65,West,279,25.0,25.0,18,0.00,,---,0.00,VWS V14.01,2013-05-31 22:11:00,
2013-05-31 16:20:00,56.2,15.7,29.67,WNW,286,11.0,30.0,20,0.00,,---,0.00,VWS V14.01,2013-05-31 22:20:00,
2013-05-31 16:21:00,56.2,15.7,29.67,WNW,286,11.0,30.0,20,0.00,,---,0.00,VWS V14.01,2013-05-31 22:21:00,
2013-05-31 16:30:00,57.8,17.0,29.65,NW,311,16.0,27.0,20,0.00,,---,0.00,VWS V14.01,2013-05-31 22:30:00,
2013-05-31 16:31:00,57.8,17.0,29.65,NW,311,16.0,27.0,20,0.00,,---,0.00,VWS V14.01,2013-05-31 22:31:00,
2013-05-31 16:40:00,57.4,16.7,29.67,NW,325,17.0,29.0,20,0.00,,---,0.00,VWS V14.01,2013-05-31 22:40:00,
2013-05-31 16:41:00,57.4,16.7,29.67,NW,325,17.0,29.0,20,0.00,,---,0.00,VWS V14.01,2013-05-31 22:41:00,
2013-05-31 16:50:00,57.5,19.0,29.65,NW,323,18.0,24.0,22,0.00,,---,0.00,VWS V14.01,2013-05-31 22:50:00,
2013-05-31 16:51:00,57.5,19.0,29.65,NW,323,18.0,24.0,22,0.00,,---,0.00,VWS V14.01,2013-05-31 22:51:00,
2013-05-31 17:00:00,57.2,17.6,29.66,NW,323,14.0,24.0,21,0.00,,---,0.00,VWS V14.01,2013-05-31 23:00:00,
2013-05-31 17:01:00,57.2,17.6,29.66,NW,323,14.0,24.0,21,0.00,,---,0.00,VWS V14.01,2013-05-31 23:01:00,
2013-05-31 17:10:00,56.9,18.5,29.68,WNW,300,10.0,30.0,22,0.00,,---,0.00,VWS V14.01,2013-05-31 23:10:00,
2013-05-31 17:11:00,56.9,18.5,29.68,WNW,300,10.0,30.0,22,0.00,,---,0.00,VWS V14.01,2013-05-31 23:11:00,
2013-05-31 17:20:00,56.1,16.7,29.68,NW,322,19.0,27.0,21,0.00,,---,0.00,VWS V14.01,2013-05-31 23:20:00,
2013-05-31 17:21:00,56.1,16.7,29.68,NW,322,19.0,27.0,21,0.00,,---,0.00,VWS V14.01,2013-05-31 23:21:00,
2013-05-31 17:30:00,54.8,16.7,29.70,NW,313,18.0,24.0,22,0.00,,---,0.00,VWS V14.01,2013-05-31 23:30:00,
2013-05-31 17:31:00,54.8,16.7,29.70,NW,313,18.0,24.0,22,0.00,,---,0.00,VWS V14.01,2013-05-31 23:31:00,
2013-05-31 17:40:00,54.2,17.2,29.72,WNW,299,20.0,26.0,23,0.00,,---,0.00,VWS V14.01,2013-05-31 23:40:00,
2013-05-31 17:41:00,54.2,17.2,29.72,WNW,299,20.0,26.0,23,0.00,,---,0.00,VWS V14.01,2013-05-31 23:41:00,
2013-05-31 17:50:00,54.4,17.4,29.72,WNW,282,17.0,26.0,23,0.00,,---,0.00,VWS V14.01,2013-05-31 23:50:00,
2013-05-31 17:51:00,54.4,17.4,29.72,WNW,282,17.0,26.0,23,0.00,,---,0.00,VWS V14.01,2013-05-31 23:51:00,
2013-05-31 18:00:00,55.6,16.3,29.72,WNW,294,11.0,24.0,21,0.00,,---,0.00,VWS V14.01,2013-06-01 00:00:00,
2013-05-31 18:01:00,55.6,16.3,29.72,WNW,294,11.0,24.0,21,0.00,,---,0.00,VWS V14.01,2013-06-01 00:01:00,
2013-05-31 18:10:00,56.0,16.6,29.72,NW,317,19.0,25.0,21,0.00,,---,0.00,VWS V14.01,2013-06-01 00:10:00,
2013-05-31 18:11:00,56.0,16.6,29.72,NW,317,19.0,25.0,21,0.00,,---,0.00,VWS V14.01,2013-06-01 00:11:00,
2013-05-31 18:20:00,56.5,15.9,29.70,NW,313,11.0,21.0,20,0.00,,---,0.00,VWS V14.01,2013-06-01 00:20:00,
2013-05-31 18:21:00,56.5,15.9,29.70,NW,313,11.0,21.0,20,0.00,,---,0.00,VWS V14.01,2013-06-01 00:21:00,
2013-05-31 18:30:00,56.4,17.0,29.72,WNW,292,10.0,21.0,21,0.00,,---,0.00,VWS V14.01,2013-06-01 00:30:00,
2013-05-31 18:31:00,56.4,17.0,29.72,WNW,292,10.0,21.0,21,0.00,,---,0.00,VWS V14.01,2013-06-01 00:31:00,
2013-05-31 18:40:00,56.3,15.8,29.73,NW,313,11.0,20.0,20,0.00,,---,0.00,VWS V14.01,2013-06-01 00:40:00,
2013-05-31 18:41:00,56.3,15.8,29.73,NW,313,11.0,20.0,20,0.00,,---,0.00,VWS V14.01,2013-06-01 00:41:00,
2013-05-31 18:50:00,56.0,15.5,29.73,WNW,301,12.0,20.0,20,0.00,,---,0.00,VWS V14.01,2013-06-01 00:50:00,
2013-05-31 18:51:00,56.0,15.5,29.73,WNW,301,12.0,20.0,20,0.00,,---,0.00,VWS V14.01,2013-06-01 00:51:00,
2013-05-31 19:00:00,55.3,16.0,29.73,WNW,300,9.0,16.0,21,0.00,,---,0.00,VWS V14.01,2013-06-01 01:00:00,
2013-05-31 19:01:00,55.3,16.0,29.73,WNW,300,9.0,16.0,21,0.00,,---,0.00,VWS V14.01,2013-06-01 01:01:00,
2013-05-31 19:10:00,54.9,14.6,29.70,NW,305,11.0,22.0,20,0.00,,---,0.00,VWS V14.01,2013-06-01 01:10:00,
2013-05-31 19:11:00,54.9,14.6,29.70,NW,305,11.0,22.0,20,0.00,,---,0.00,VWS V14.01,2013-06-01 01:11:00,
2013-05-31 19:20:00,54.7,14.4,29.71,WNW,300,6.0,19.0,20,0.00,,---,0.00,VWS V14.01,2013-06-01 01:20:00,
2013-05-31 19:21:00,54.7,14.4,29.71,WNW,300,6.0,19.0,20,0.00,,---,0.00,VWS V14.01,2013-06-01 01:21:00,
2013-05-31 19:30:00,54.5,14.3,29.71,NW,317,7.0,19.0,20,0.00,,---,0.00,VWS V14.01,2013-06-01 01:30:00,
2013-05-31 19:31:00,54.5,14.3,29.71,NW,317,7.0,19.0,20,0.00,,---,0.00,VWS V14.01,2013-06-01 01:31:00,
2013-05-31 19:40:00,53.1,14.2,29.73,NNW,336,13.0,20.0,21,0.00,,---,0.00,VWS V14.01,2013-06-01 01:40:00,
2013-05-31 19:41:00,53.1,14.2,29.73,NNW,336,13.0,20.0,21,0.00,,---,0.00,VWS V14.01,2013-06-01 01:41:00,
2013-05-31 19:50:00,51.9,14.3,29.75,NNW,331,10.0,14.0,22,0.00,,---,0.00,VWS V14.01,2013-06-01 01:50:00,
2013-05-31 19:51:00,51.9,14.3,29.75,NNW,331,10.0,14.0,22,0.00,,---,0.00,VWS V14.01,2013-06-01 01:51:00,
2013-05-31 20:00:00,51.0,14.5,29.73,NW,321,7.0,13.0,23,0.00,,---,0.00,VWS V14.01,2013-06-01 02:00:00,
2013-05-31 20:01:00,51.0,14.5,29.73,NW,321,7.0,13.0,23,0.00,,---,0.00,VWS V14.01,2013-06-01 02:01:00,
2013-05-31 20:10:00,50.1,14.7,29.73,NW,319,9.0,13.0,24,0.00,,---,0.00,VWS V14.01,2013-06-01 02:10:00,
2013-05-31 20:11:00,50.1,14.7,29.73,NW,319,9.0,13.0,24,0.00,,---,0.00,VWS V14.01,2013-06-01 02:11:00,
2013-05-31 20:20:00,48.9,14.6,29.76,NW,317,10.0,11.0,25,0.00,,---,0.00,VWS V14.01,2013-06-01 02:20:00,
2013-05-31 20:21:00,48.9,14.6,29.76,NW,317,10.0,11.0,25,0.00,,---,0.00,VWS V14.01,2013-06-01 02:21:00,
2013-05-31 20:30:00,47.7,14.5,29.75,NW,314,11.0,11.0,26,0.00,,---,0.00,VWS V14.01,2013-06-01 02:30:00,
2013-05-31 20:31:00,47.7,14.5,29.75,NW,314,11.0,11.0,26,0.00,,---,0.00,VWS V14.01,2013-06-01 02:31:00,
2013-05-31 20:40:00,48.6,14.4,29.75,NW,309,11.0,15.0,25,0.00,,---,0.00,VWS V14.01,2013-06-01 02:40:00,
2013-05-31 20:41:00,48.6,14.4,29.75,NW,309,11.0,15.0,25,0.00,,---,0.00,VWS V14.01,2013-06-01 02:41:00,
2013-05-31 20:50:00,47.7,14.5,29.76,NW,310,4.0,12.0,26,0.00,,---,0.00,VWS V14.01,2013-06-01 02:50:00,
2013-05-31 20:51:00,47.7,14.5,29.76,NW,310,4.0,12.0,26,0.00,,---,0.00,VWS V14.01,2013-06-01 02:51:00,
2013-05-31 21:00:00,47.1,14.0,29.78,NW,309,6.0,12.0,26,0.00,,---,0.00,VWS V14.01,2013-06-01 03:00:00,
2013-05-31 21:01:00,47.1,14.0,29.78,NW,309,6.0,12.0,26,0.00,,---,0.00,VWS V14.01,2013-06-01 03:01:00,
2013-05-31 21:10:00,46.9,12.9,29.75,NW,314,11.0,12.0,25,0.00,,---,0.00,VWS V14.01,2013-06-01 03:10:00,
2013-05-31 21:11:00,46.9,12.9,29.75,NW,314,11.0,12.0,25,0.00,,---,0.00,VWS V14.01,2013-06-01 03:11:00,
2013-05-31 21:20:00,47.2,13.2,29.75,NW,316,7.0,13.0,25,0.00,,---,0.00,VWS V14.01,2013-06-01 03:20:00,
2013-05-31 21:21:00,47.2,13.2,29.75,NW,316,7.0,13.0,25,0.00,,---,0.00,VWS V14.01,2013-06-01 03:21:00,
2013-05-31 21:30:00,46.5,12.6,29.76,NW,317,11.0,13.0,25,0.00,,---,0.00,VWS V14.01,2013-06-01 03:30:00,
2013-05-31 21:31:00,46.5,12.6,29.76,NW,317,11.0,13.0,25,0.00,,---,0.00,VWS V14.01,2013-06-01 03:31:00,
2013-05-31 21:40:00,48.7,12.6,29.75,NW,317,13.0,16.0,23,0.00,,---,0.00,VWS V14.01,2013-06-01 03:40:00,
2013-05-31 21:41:00,48.7,12.6,29.75,NW,317,13.0,16.0,23,0.00,,---,0.00,VWS V14.01,2013-06-01 03:41:00,
2013-05-31 21:50:00,49.3,12.1,29.75,NW,318,11.0,17.0,22,0.00,,---,0.00,VWS V14.01,2013-06-01 03:50:00,
2013-05-31 21:51:00,49.3,12.1,29.75,NW,318,11.0,17.0,22,0.00,,---,0.00,VWS V14.01,2013-06-01 03:51:00,
2013-05-31 22:00:00,48.2,12.1,29.77,NNW,338,7.0,14.0,23,0.00,,---,0.00,VWS V14.01,2013-06-01 04:00:00,
2013-05-31 22:01:00,48.2,12.1,29.77,NNW,338,7.0,14.0,23,0.00,,---,0.00,VWS V14.01,2013-06-01 04:01:00,
2013-05-31 22:10:00,46.6,12.7,29.76,NNW,340,5.0,11.0,25,0.00,,---,0.00,VWS V14.01,2013-06-01 04:10:00,
2013-05-31 22:11:00,46.6,12.7,29.76,NNW,340,5.0,11.0,25,0.00,,---,0.00,VWS V14.01,2013-06-01 04:11:00,
2013-05-31 22:20:00,45.5,12.6,29.77,NNW,341,10.0,12.0,26,0.00,,---,0.00,VWS V14.01,2013-06-01 04:20:00,
2013-05-31 22:21:00,45.5,12.6,29.77,NNW,341,10.0,12.0,26,0.00,,---,0.00,VWS V14.01,2013-06-01 04:21:00,
2013-05-31 22:30:00,47.8,12.8,29.76,NW,326,2.0,16.0,24,0.00,,---,0.00,VWS V14.01,2013-06-01 04:30:00,
2013-05-31 22:31:00,47.8,12.8,29.76,NW,326,2.0,16.0,24,0.00,,---,0.00,VWS V14.01,2013-06-01 04:31:00,
2013-05-31 22:40:00,46.5,11.7,29.78,NW,317,3.0,13.0,24,0.00,,---,0.00,VWS V14.01,2013-06-01 04:40:00,
2013-05-31 22:41:00,46.5,11.7,29.78,NW,317,3.0,13.0,24,0.00,,---,0.00,VWS V14.01,2013-06-01 04:41:00,
2013-05-31 22:50:00,45.6,12.7,29.78,NNW,344,11.0,13.0,26,0.00,,---,0.00,VWS V14.01,2013-06-01 04:50:00,
2013-05-31 22:51:00,45.6,12.7,29.78,NNW,344,11.0,13.0,26,0.00,,---,0.00,VWS V14.01,2013-06-01 04:51:00,
2013-05-31 23:00:00,45.2,12.4,29.80,NNW,343,0.0,11.0,26,0.00,,---,0.00,VWS V14.01,2013-06-01 05:00:00,
2013-05-31 23:01:00,45.2,12.4,29.80,NNW,343,0.0,11.0,26,0.00,,---,0.00,VWS V14.01,2013-06-01 05:01:00,
2013-05-31 23:10:00,43.9,12.9,29.78,NNW,343,2.0,7.0,28,0.00,,---,0.00,VWS V14.01,2013-06-01 05:10:00,
2013-05-31 23:11:00,43.9,12.9,29.78,NNW,343,2.0,7.0,28,0.00,,---,0.00,VWS V14.01,2013-06-01 05:11:00,
2013-05-31 23:20:00,41.8,13.4,29.80,NNW,342,0.0,5.0,31,0.00,,---,0.00,VWS V14.01,2013-06-01 05:20:00,
2013-05-31 23:21:00,41.8,13.4,29.80,NNW,342,0.0,5.0,31,0.00,,---,0.00,VWS V14.01,2013-06-01 05:21:00,
2013-05-31 23:30:00,41.1,13.5,29.83,NNW,343,3.0,7.0,32,0.00,,---,0.00,VWS V14.01,2013-06-01 05:30:00,
2013-05-31 23:31:00,41.1,13.5,29.83,NNW,343,3.0,7.0,32,0.00,,---,0.00,VWS V14.01,2013-06-01 05:31:00,
2013-05-31 23:40:00,41.4,13.8,29.81,NNW,342,3.0,5.0,32,0.00,,---,0.00,VWS V14.01,2013-06-01 05:40:00,
2013-05-31 23:41:00,41.4,13.8,29.81,NNW,342,3.0,5.0,32,0.00,,---,0.00,VWS V14.01,2013-06-01 05:41:00,
2013-05-31 23:50:00,41.8,14.1,29.82,NNW,340,4.0,10.0,32,0.00,,---,0.00,VWS V14.01,2013-06-01 05:50:00,
2013-05-31 23:51:00,41.8,14.1,29.82,NNW,340,4.0,10.0,32,0.00,,---,0.00,VWS V14.01,2013-06-01 05:51:00,